sensor_id;sensor_type;location;lat;lon;timestamp;P1;durP1;ratioP1;P2;durP2;ratioP2
12888;SDS011;56848;49.896;11.424;2023-05-10T04:01:44;7.20;;;5.10;;
12888;SDS011;56848;49.896;11.424;2023-05-10T04:04:10;7.77;;;5.10;;
12888;SDS011;56848;49.896;11.424;2023-05-10T04:06:37;6.80;;;5.33;;
12888;SDS011;56848;49.896;11.424;2023-05-10T04:09:03;11.13;;;4.83;;
12888;SDS011;56848;49.896;11.424;2023-05-10T04:11:29;14.50;;;5.97;;
12888;SDS011;56848;49.896;11.424;2023-05-10T04:13:56;7.07;;;5.50;;
12888;SDS011;56848;49.896;11.424;2023-05-10T04:16:22;9.83;;;5.30;;
12888;SDS011;56848;49.896;11.424;2023-05-10T04:18:48;9.03;;;5.60;;
12888;SDS011;56848;49.896;11.424;2023-05-10T04:21:14;8.17;;;5.20;;
12888;SDS011;56848;49.896;11.424;2023-05-10T04:23:40;12.07;;;5.30;;
12888;SDS011;56848;49.896;11.424;2023-05-10T04:26:06;10.43;;;5.30;;
12888;SDS011;56848;49.896;11.424;2023-05-10T04:28:32;9.17;;;6.40;;
12888;SDS011;56848;49.896;11.424;2023-05-10T04:31:08;7.90;;;6.53;;
12888;SDS011;56848;49.896;11.424;2023-05-10T04:33:34;11.37;;;6.60;;
12888;SDS011;56848;49.896;11.424;2023-05-10T04:36:00;11.43;;;6.47;;
12888;SDS011;56848;49.896;11.424;2023-05-10T04:38:26;10.20;;;6.53;;
12888;SDS011;56848;49.896;11.424;2023-05-10T04:40:52;11.67;;;6.93;;
12888;SDS011;56848;49.896;11.424;2023-05-10T04:43:18;14.93;;;7.03;;
12888;SDS011;56848;49.896;11.424;2023-05-10T04:45:45;9.10;;;6.50;;
12888;SDS011;56848;49.896;11.424;2023-05-10T04:48:11;10.40;;;6.63;;
12888;SDS011;56848;49.896;11.424;2023-05-10T04:50:37;14.43;;;6.50;;
12888;SDS011;56848;49.896;11.424;2023-05-10T04:53:03;12.63;;;7.10;;
12888;SDS011;56848;49.896;11.424;2023-05-10T04:55:29;14.30;;;7.97;;
12888;SDS011;56848;49.896;11.424;2023-05-10T04:57:55;10.60;;;7.00;;
12888;SDS011;56848;49.896;11.424;2023-05-10T05:00:22;10.30;;;6.00;;
12888;SDS011;56848;49.896;11.424;2023-05-10T05:02:48;9.90;;;6.50;;
12888;SDS011;56848;49.896;11.424;2023-05-10T05:05:14;11.20;;;7.60;;
12888;SDS011;56848;49.896;11.424;2023-05-10T05:07:40;13.40;;;7.23;;
12888;SDS011;56848;49.896;11.424;2023-05-10T05:10:06;11.93;;;8.03;;
12888;SDS011;56848;49.896;11.424;2023-05-10T05:12:32;13.00;;;7.57;;
12888;SDS011;56848;49.896;11.424;2023-05-10T05:14:58;11.50;;;7.47;;
12888;SDS011;56848;49.896;11.424;2023-05-10T05:17:24;9.83;;;6.63;;
12888;SDS011;56848;49.896;11.424;2023-05-10T05:19:51;13.47;;;6.53;;
12888;SDS011;56848;49.896;11.424;2023-05-10T05:22:17;9.43;;;6.87;;
12888;SDS011;56848;49.896;11.424;2023-05-10T05:24:44;11.60;;;7.03;;
12888;SDS011;56848;49.896;11.424;2023-05-10T05:27:10;9.43;;;6.83;;
12888;SDS011;56848;49.896;11.424;2023-05-10T05:29:36;10.73;;;7.23;;
12888;SDS011;56848;49.896;11.424;2023-05-10T05:32:02;10.30;;;7.70;;
12888;SDS011;56848;49.896;11.424;2023-05-10T05:34:28;11.77;;;7.40;;
12888;SDS011;56848;49.896;11.424;2023-05-10T05:36:54;11.70;;;7.17;;
12888;SDS011;56848;49.896;11.424;2023-05-10T05:39:20;9.37;;;7.27;;
12888;SDS011;56848;49.896;11.424;2023-05-10T05:41:47;10.43;;;7.17;;
12888;SDS011;56848;49.896;11.424;2023-05-10T05:44:13;10.97;;;6.83;;
12888;SDS011;56848;49.896;11.424;2023-05-10T05:46:39;10.17;;;7.03;;
12888;SDS011;56848;49.896;11.424;2023-05-10T05:49:05;10.50;;;6.67;;
12888;SDS011;56848;49.896;11.424;2023-05-10T05:51:31;8.97;;;6.13;;
12888;SDS011;56848;49.896;11.424;2023-05-10T05:53:57;8.33;;;6.33;;
12888;SDS011;56848;49.896;11.424;2023-05-10T05:56:24;8.17;;;6.00;;
12888;SDS011;56848;49.896;11.424;2023-05-10T05:58:50;6.73;;;5.90;;
12888;SDS011;56848;49.896;11.424;2023-05-10T06:01:16;8.43;;;5.80;;
12888;SDS011;56848;49.896;11.424;2023-05-10T06:03:42;7.10;;;4.97;;
12888;SDS011;56848;49.896;11.424;2023-05-10T06:06:08;9.90;;;5.20;;
12888;SDS011;56848;49.896;11.424;2023-05-10T06:08:34;6.43;;;4.73;;
12888;SDS011;56848;49.896;11.424;2023-05-10T06:11:00;6.17;;;4.40;;
12888;SDS011;56848;49.896;11.424;2023-05-10T06:13:26;4.13;;;3.40;;
12888;SDS011;56848;49.896;11.424;2023-05-10T06:16:00;8.23;;;3.60;;
12888;SDS011;56848;49.896;11.424;2023-05-10T06:18:26;2.80;;;2.10;;
12888;SDS011;56848;49.896;11.424;2023-05-10T06:20:52;2.00;;;1.90;;
12888;SDS011;56848;49.896;11.424;2023-05-10T06:23:18;1.90;;;1.70;;
12888;SDS011;56848;49.896;11.424;2023-05-10T06:25:44;1.53;;;1.40;;
12888;SDS011;56848;49.896;11.424;2023-05-10T06:28:10;1.43;;;1.33;;
12888;SDS011;56848;49.896;11.424;2023-05-10T06:30:36;1.30;;;1.20;;
12888;SDS011;56848;49.896;11.424;2023-05-10T06:33:02;1.40;;;1.30;;
12888;SDS011;56848;49.896;11.424;2023-05-10T06:35:28;1.30;;;1.20;;
12888;SDS011;56848;49.896;11.424;2023-05-10T06:37:55;1.23;;;1.13;;
12888;SDS011;56848;49.896;11.424;2023-05-10T06:40:21;7.37;;;1.10;;
12888;SDS011;56848;49.896;11.424;2023-05-10T06:42:47;1.80;;;1.60;;
12888;SDS011;56848;49.896;11.424;2023-05-10T06:45:14;2.40;;;1.10;;
12888;SDS011;56848;49.896;11.424;2023-05-10T06:47:40;1.30;;;1.20;;
12888;SDS011;56848;49.896;11.424;2023-05-10T06:50:09;2.13;;;1.30;;
12888;SDS011;56848;49.896;11.424;2023-05-10T06:52:36;1.30;;;1.20;;
12888;SDS011;56848;49.896;11.424;2023-05-10T06:55:03;2.90;;;1.03;;
12888;SDS011;56848;49.896;11.424;2023-05-10T06:57:29;2.27;;;1.20;;
12888;SDS011;56848;49.896;11.424;2023-05-10T06:59:55;9.33;;;1.07;;
12888;SDS011;56848;49.896;11.424;2023-05-10T07:02:21;2.40;;;1.20;;
12888;SDS011;56848;49.896;11.424;2023-05-10T07:04:47;1.20;;;1.10;;
12888;SDS011;56848;49.896;11.424;2023-05-10T07:07:14;1.20;;;1.10;;
12888;SDS011;56848;49.896;11.424;2023-05-10T07:09:40;1.00;;;0.90;;
12888;SDS011;56848;49.896;11.424;2023-05-10T07:12:06;1.20;;;1.10;;
12888;SDS011;56848;49.896;11.424;2023-05-10T07:14:32;1.40;;;1.00;;
12888;SDS011;56848;49.896;11.424;2023-05-10T07:16:58;1.07;;;1.07;;
12888;SDS011;56848;49.896;11.424;2023-05-10T07:19:23;1.30;;;1.20;;
12888;SDS011;56848;49.896;11.424;2023-05-10T07:21:49;1.23;;;1.13;;
12888;SDS011;56848;49.896;11.424;2023-05-10T07:24:15;1.03;;;1.03;;
12888;SDS011;56848;49.896;11.424;2023-05-10T07:26:41;1.00;;;1.00;;
12888;SDS011;56848;49.896;11.424;2023-05-10T07:29:07;0.87;;;0.87;;
12888;SDS011;56848;49.896;11.424;2023-05-10T07:31:33;1.00;;;0.90;;
12888;SDS011;56848;49.896;11.424;2023-05-10T07:33:59;2.10;;;0.97;;
12888;SDS011;56848;49.896;11.424;2023-05-10T07:36:25;3.53;;;1.60;;
12888;SDS011;56848;49.896;11.424;2023-05-10T07:38:52;0.90;;;0.90;;
12888;SDS011;56848;49.896;11.424;2023-05-10T07:41:18;1.07;;;1.00;;
12888;SDS011;56848;49.896;11.424;2023-05-10T07:43:45;3.70;;;1.10;;
12888;SDS011;56848;49.896;11.424;2023-05-10T07:46:11;0.90;;;0.90;;
12888;SDS011;56848;49.896;11.424;2023-05-10T07:48:37;1.37;;;1.27;;
12888;SDS011;56848;49.896;11.424;2023-05-10T07:51:03;1.20;;;1.10;;
12888;SDS011;56848;49.896;11.424;2023-05-10T07:53:31;1.20;;;1.10;;
12888;SDS011;56848;49.896;11.424;2023-05-10T07:55:57;1.30;;;1.20;;
12888;SDS011;56848;49.896;11.424;2023-05-10T07:58:24;1.60;;;1.50;;
12888;SDS011;56848;49.896;11.424;2023-05-10T08:00:50;1.50;;;1.40;;
12888;SDS011;56848;49.896;11.424;2023-05-10T08:03:16;3.47;;;1.37;;
12888;SDS011;56848;49.896;11.424;2023-05-10T08:05:42;1.40;;;1.30;;
12888;SDS011;56848;49.896;11.424;2023-05-10T08:08:08;3.53;;;1.50;;
12888;SDS011;56848;49.896;11.424;2023-05-10T08:10:34;1.43;;;1.20;;
12888;SDS011;56848;49.896;11.424;2023-05-10T08:13:00;1.70;;;1.23;;
12888;SDS011;56848;49.896;11.424;2023-05-10T08:15:26;1.30;;;1.30;;
12888;SDS011;56848;49.896;11.424;2023-05-10T08:17:52;1.50;;;1.40;;
12888;SDS011;56848;49.896;11.424;2023-05-10T08:20:18;1.47;;;1.30;;
12888;SDS011;56848;49.896;11.424;2023-05-10T08:22:44;1.43;;;1.33;;
12888;SDS011;56848;49.896;11.424;2023-05-10T08:25:10;1.53;;;1.30;;
12888;SDS011;56848;49.896;11.424;2023-05-10T08:27:36;1.80;;;1.70;;
12888;SDS011;56848;49.896;11.424;2023-05-10T08:30:02;1.67;;;1.57;;
12888;SDS011;56848;49.896;11.424;2023-05-10T08:32:28;1.50;;;1.40;;
12888;SDS011;56848;49.896;11.424;2023-05-10T08:34:54;2.10;;;1.37;;
12888;SDS011;56848;49.896;11.424;2023-05-10T08:37:22;1.10;;;1.10;;
12888;SDS011;56848;49.896;11.424;2023-05-10T08:39:48;1.40;;;1.30;;
12888;SDS011;56848;49.896;11.424;2023-05-10T08:42:15;1.53;;;1.43;;
12888;SDS011;56848;49.896;11.424;2023-05-10T08:44:42;1.40;;;1.30;;
12888;SDS011;56848;49.896;11.424;2023-05-10T08:47:08;1.43;;;1.30;;
12888;SDS011;56848;49.896;11.424;2023-05-10T08:49:34;1.37;;;1.27;;
12888;SDS011;56848;49.896;11.424;2023-05-10T08:52:03;1.27;;;1.17;;
12888;SDS011;56848;49.896;11.424;2023-05-10T08:54:33;1.00;;;1.00;;
12888;SDS011;56848;49.896;11.424;2023-05-10T08:56:59;1.70;;;1.20;;
12888;SDS011;56848;49.896;11.424;2023-05-10T08:59:26;0.90;;;0.90;;
12888;SDS011;56848;49.896;11.424;2023-05-10T09:01:52;1.97;;;1.20;;
12888;SDS011;56848;49.896;11.424;2023-05-10T09:04:20;0.90;;;0.90;;
12888;SDS011;56848;49.896;11.424;2023-05-10T09:06:46;1.20;;;1.20;;
12888;SDS011;56848;49.896;11.424;2023-05-10T09:09:12;1.97;;;0.97;;
12888;SDS011;56848;49.896;11.424;2023-05-10T09:11:39;0.97;;;0.90;;
12888;SDS011;56848;49.896;11.424;2023-05-10T09:14:05;1.30;;;1.00;;
12888;SDS011;56848;49.896;11.424;2023-05-10T09:16:32;2.97;;;1.00;;
12888;SDS011;56848;49.896;11.424;2023-05-10T09:18:58;0.90;;;0.90;;
12888;SDS011;56848;49.896;11.424;2023-05-10T09:21:24;1.63;;;1.30;;
12888;SDS011;56848;49.896;11.424;2023-05-10T09:23:50;0.90;;;0.90;;
12888;SDS011;56848;49.896;11.424;2023-05-10T09:26:21;3.10;;;0.90;;
12888;SDS011;56848;49.896;11.424;2023-05-10T09:31:16;2.17;;;1.20;;
12888;SDS011;56848;49.896;11.424;2023-05-10T09:33:46;1.33;;;1.10;;
12888;SDS011;56848;49.896;11.424;2023-05-10T09:36:12;0.90;;;0.80;;
12888;SDS011;56848;49.896;11.424;2023-05-10T09:38:48;0.90;;;0.90;;
12888;SDS011;56848;49.896;11.424;2023-05-10T09:41:19;1.43;;;1.33;;
12888;SDS011;56848;49.896;11.424;2023-05-10T09:43:46;0.80;;;0.80;;
12888;SDS011;56848;49.896;11.424;2023-05-10T09:46:12;1.10;;;1.00;;
12888;SDS011;56848;49.896;11.424;2023-05-10T09:48:42;0.90;;;0.90;;
12888;SDS011;56848;49.896;11.424;2023-05-10T09:51:08;1.30;;;1.20;;
12888;SDS011;56848;49.896;11.424;2023-05-10T09:53:35;1.17;;;1.10;;
12888;SDS011;56848;49.896;11.424;2023-05-10T09:56:01;1.30;;;0.87;;
12888;SDS011;56848;49.896;11.424;2023-05-10T09:58:27;0.97;;;0.97;;
12888;SDS011;56848;49.896;11.424;2023-05-10T10:00:53;2.50;;;1.13;;
12888;SDS011;56848;49.896;11.424;2023-05-10T10:03:20;1.07;;;0.97;;
12888;SDS011;56848;49.896;11.424;2023-05-10T10:05:47;1.10;;;1.00;;
12888;SDS011;56848;49.896;11.424;2023-05-10T10:08:13;1.20;;;1.10;;
12888;SDS011;56848;49.896;11.424;2023-05-10T10:10:39;12.93;;;1.50;;
12888;SDS011;56848;49.896;11.424;2023-05-10T10:13:05;1.43;;;1.10;;
12888;SDS011;56848;49.896;11.424;2023-05-10T10:15:32;1.13;;;1.00;;
12888;SDS011;56848;49.896;11.424;2023-05-10T10:17:58;1.37;;;1.27;;
12888;SDS011;56848;49.896;11.424;2023-05-10T10:20:24;1.50;;;1.40;;
12888;SDS011;56848;49.896;11.424;2023-05-10T10:22:50;1.40;;;1.30;;
12888;SDS011;56848;49.896;11.424;2023-05-10T10:25:18;1.73;;;1.20;;
12888;SDS011;56848;49.896;11.424;2023-05-10T10:32:59;1.00;;;1.00;;
12888;SDS011;56848;49.896;11.424;2023-05-10T10:35:27;4.20;;;1.23;;
12888;SDS011;56848;49.896;11.424;2023-05-10T10:37:53;3.13;;;1.10;;
12888;SDS011;56848;49.896;11.424;2023-05-10T10:40:26;1.37;;;1.10;;
12888;SDS011;56848;49.896;11.424;2023-05-10T10:42:53;2.90;;;1.00;;
12888;SDS011;56848;49.896;11.424;2023-05-10T10:45:19;1.47;;;1.00;;
12888;SDS011;56848;49.896;11.424;2023-05-10T10:47:46;2.07;;;1.20;;
12888;SDS011;56848;49.896;11.424;2023-05-10T10:50:12;1.30;;;1.20;;
12888;SDS011;56848;49.896;11.424;2023-05-10T10:52:44;1.20;;;1.10;;
12888;SDS011;56848;49.896;11.424;2023-05-10T10:55:15;1.23;;;1.13;;
12888;SDS011;56848;49.896;11.424;2023-05-10T10:57:50;1.10;;;1.00;;
12888;SDS011;56848;49.896;11.424;2023-05-10T11:02:47;1.10;;;1.00;;
12888;SDS011;56848;49.896;11.424;2023-05-10T11:07:53;1.43;;;1.33;;
12888;SDS011;56848;49.896;11.424;2023-05-10T11:10:20;1.37;;;1.27;;
12888;SDS011;56848;49.896;11.424;2023-05-10T11:12:59;0.93;;;0.93;;
12888;SDS011;56848;49.896;11.424;2023-05-10T11:15:32;3.40;;;1.47;;
12888;SDS011;56848;49.896;11.424;2023-05-10T11:17:59;0.90;;;0.90;;
12888;SDS011;56848;49.896;11.424;2023-05-10T11:20:28;2.00;;;1.50;;
12888;SDS011;56848;49.896;11.424;2023-05-10T11:22:58;1.67;;;1.20;;
12888;SDS011;56848;49.896;11.424;2023-05-10T11:25:40;12.93;;;1.40;;
12888;SDS011;56848;49.896;11.424;2023-05-10T11:28:06;1.50;;;1.40;;
12888;SDS011;56848;49.896;11.424;2023-05-10T11:30:32;1.10;;;1.10;;
12888;SDS011;56848;49.896;11.424;2023-05-10T11:32:58;2.17;;;1.37;;
12888;SDS011;56848;49.896;11.424;2023-05-10T11:35:24;1.27;;;1.17;;
12888;SDS011;56848;49.896;11.424;2023-05-10T11:37:53;1.07;;;1.07;;
12888;SDS011;56848;49.896;11.424;2023-05-10T11:40:18;1.20;;;1.10;;
12888;SDS011;56848;49.896;11.424;2023-05-10T11:42:49;1.40;;;1.30;;
12888;SDS011;56848;49.896;11.424;2023-05-10T11:45:15;1.10;;;1.10;;
12888;SDS011;56848;49.896;11.424;2023-05-10T11:47:41;1.80;;;1.30;;
12888;SDS011;56848;49.896;11.424;2023-05-10T11:50:08;1.47;;;1.37;;
12888;SDS011;56848;49.896;11.424;2023-05-10T11:52:37;2.87;;;1.57;;
12888;SDS011;56848;49.896;11.424;2023-05-10T11:55:04;3.17;;;1.40;;
12888;SDS011;56848;49.896;11.424;2023-05-10T11:57:30;1.57;;;1.47;;
12888;SDS011;56848;49.896;11.424;2023-05-10T11:59:56;1.60;;;1.50;;
12888;SDS011;56848;49.896;11.424;2023-05-10T12:02:22;1.40;;;1.30;;
12888;SDS011;56848;49.896;11.424;2023-05-10T12:04:49;1.67;;;1.50;;
12888;SDS011;56848;49.896;11.424;2023-05-10T12:07:15;5.40;;;1.40;;
12888;SDS011;56848;49.896;11.424;2023-05-10T12:09:43;1.30;;;1.20;;
12888;SDS011;56848;49.896;11.424;2023-05-10T12:12:09;2.77;;;1.30;;
12888;SDS011;56848;49.896;11.424;2023-05-10T12:14:36;1.57;;;1.17;;
12888;SDS011;56848;49.896;11.424;2023-05-10T12:17:02;1.30;;;1.20;;
12888;SDS011;56848;49.896;11.424;2023-05-10T12:19:28;1.47;;;1.37;;
12888;SDS011;56848;49.896;11.424;2023-05-10T12:21:54;1.40;;;1.30;;
12888;SDS011;56848;49.896;11.424;2023-05-10T12:24:20;1.20;;;1.20;;
12888;SDS011;56848;49.896;11.424;2023-05-10T12:26:46;1.30;;;1.20;;
12888;SDS011;56848;49.896;11.424;2023-05-10T12:29:17;1.50;;;1.37;;
12888;SDS011;56848;49.896;11.424;2023-05-10T12:31:52;1.57;;;1.40;;
12888;SDS011;56848;49.896;11.424;2023-05-10T12:36:52;1.77;;;1.30;;
12888;SDS011;56848;49.896;11.424;2023-05-10T12:39:18;1.10;;;1.10;;
12888;SDS011;56848;49.896;11.424;2023-05-10T12:41:44;2.43;;;1.17;;
12888;SDS011;56848;49.896;11.424;2023-05-10T12:44:09;2.30;;;1.13;;
12888;SDS011;56848;49.896;11.424;2023-05-10T12:46:35;0.97;;;0.97;;
12888;SDS011;56848;49.896;11.424;2023-05-10T12:49:01;1.30;;;0.90;;
12888;SDS011;56848;49.896;11.424;2023-05-10T12:51:27;1.00;;;1.00;;
12888;SDS011;56848;49.896;11.424;2023-05-10T12:53:53;1.30;;;1.00;;
12888;SDS011;56848;49.896;11.424;2023-05-10T12:56:20;1.93;;;1.13;;
12888;SDS011;56848;49.896;11.424;2023-05-10T12:58:46;1.63;;;1.00;;
12888;SDS011;56848;49.896;11.424;2023-05-10T13:01:13;2.33;;;1.50;;
12888;SDS011;56848;49.896;11.424;2023-05-10T13:03:39;2.53;;;1.27;;
12888;SDS011;56848;49.896;11.424;2023-05-10T13:06:05;10.83;;;1.47;;
12888;SDS011;56848;49.896;11.424;2023-05-10T13:08:31;1.30;;;1.20;;
12888;SDS011;56848;49.896;11.424;2023-05-10T13:11:01;2.13;;;1.50;;
12888;SDS011;56848;49.896;11.424;2023-05-10T13:13:28;4.40;;;1.13;;
12888;SDS011;56848;49.896;11.424;2023-05-10T13:15:53;1.27;;;1.17;;
12888;SDS011;56848;49.896;11.424;2023-05-10T13:18:19;1.30;;;1.20;;
12888;SDS011;56848;49.896;11.424;2023-05-10T13:20:45;2.70;;;1.50;;
12888;SDS011;56848;49.896;11.424;2023-05-10T13:23:11;2.07;;;1.60;;
12888;SDS011;56848;49.896;11.424;2023-05-10T13:25:37;1.87;;;1.37;;
12888;SDS011;56848;49.896;11.424;2023-05-10T13:28:04;1.10;;;1.10;;
12888;SDS011;56848;49.896;11.424;2023-05-10T13:30:30;1.20;;;1.10;;
12888;SDS011;56848;49.896;11.424;2023-05-10T13:32:56;1.13;;;1.03;;
12888;SDS011;56848;49.896;11.424;2023-05-10T13:35:22;1.83;;;1.17;;
12888;SDS011;56848;49.896;11.424;2023-05-10T13:37:48;1.43;;;1.33;;
12888;SDS011;56848;49.896;11.424;2023-05-10T13:40:14;4.63;;;1.47;;
12888;SDS011;56848;49.896;11.424;2023-05-10T13:42:40;1.50;;;1.40;;
12888;SDS011;56848;49.896;11.424;2023-05-10T13:45:06;1.83;;;1.30;;
12888;SDS011;56848;49.896;11.424;2023-05-10T13:47:32;1.30;;;1.20;;
12888;SDS011;56848;49.896;11.424;2023-05-10T13:49:58;2.47;;;1.17;;
12888;SDS011;56848;49.896;11.424;2023-05-10T13:52:25;1.43;;;1.10;;
12888;SDS011;56848;49.896;11.424;2023-05-10T13:54:51;2.50;;;1.40;;
12888;SDS011;56848;49.896;11.424;2023-05-10T13:57:19;2.57;;;1.40;;
12888;SDS011;56848;49.896;11.424;2023-05-10T13:59:45;1.40;;;1.30;;
12888;SDS011;56848;49.896;11.424;2023-05-10T14:02:12;1.33;;;1.23;;
12888;SDS011;56848;49.896;11.424;2023-05-10T14:04:38;3.63;;;1.20;;
12888;SDS011;56848;49.896;11.424;2023-05-10T14:07:04;1.17;;;1.00;;
12888;SDS011;56848;49.896;11.424;2023-05-10T14:09:30;1.30;;;1.20;;
12888;SDS011;56848;49.896;11.424;2023-05-10T14:11:56;3.90;;;1.80;;
12888;SDS011;56848;49.896;11.424;2023-05-10T14:14:23;3.00;;;1.50;;
12888;SDS011;56848;49.896;11.424;2023-05-10T14:16:49;1.37;;;1.30;;
12888;SDS011;56848;49.896;11.424;2023-05-10T14:19:15;1.83;;;1.60;;
12888;SDS011;56848;49.896;11.424;2023-05-10T14:21:42;1.50;;;1.40;;
12888;SDS011;56848;49.896;11.424;2023-05-10T14:24:08;17.00;;;2.27;;
12888;SDS011;56848;49.896;11.424;2023-05-10T14:26:34;2.77;;;1.50;;
12888;SDS011;56848;49.896;11.424;2023-05-10T14:29:00;3.57;;;2.10;;
12888;SDS011;56848;49.896;11.424;2023-05-10T14:31:26;5.27;;;2.17;;
12888;SDS011;56848;49.896;11.424;2023-05-10T14:33:52;3.33;;;2.20;;
12888;SDS011;56848;49.896;11.424;2023-05-10T14:36:18;2.33;;;1.80;;
12888;SDS011;56848;49.896;11.424;2023-05-10T14:38:44;6.37;;;2.43;;
12888;SDS011;56848;49.896;11.424;2023-05-10T14:41:10;4.80;;;2.33;;
12888;SDS011;56848;49.896;11.424;2023-05-10T14:43:39;4.10;;;2.07;;
12888;SDS011;56848;49.896;11.424;2023-05-10T14:46:06;2.80;;;1.80;;
12888;SDS011;56848;49.896;11.424;2023-05-10T14:48:32;2.47;;;1.90;;
12888;SDS011;56848;49.896;11.424;2023-05-10T14:50:58;6.80;;;2.20;;
12888;SDS011;56848;49.896;11.424;2023-05-10T14:53:24;5.00;;;2.30;;
12888;SDS011;56848;49.896;11.424;2023-05-10T14:55:50;2.23;;;2.03;;
12888;SDS011;56848;49.896;11.424;2023-05-10T14:58:16;6.80;;;2.70;;
12888;SDS011;56848;49.896;11.424;2023-05-10T15:00:42;4.43;;;2.80;;
12888;SDS011;56848;49.896;11.424;2023-05-10T15:03:08;5.50;;;2.97;;
12888;SDS011;56848;49.896;11.424;2023-05-10T15:05:34;8.97;;;3.20;;
12888;SDS011;56848;49.896;11.424;2023-05-10T15:08:02;9.80;;;2.67;;
12888;SDS011;56848;49.896;11.424;2023-05-10T15:10:28;5.93;;;2.43;;
12888;SDS011;56848;49.896;11.424;2023-05-10T15:12:54;6.17;;;3.03;;
12888;SDS011;56848;49.896;11.424;2023-05-10T15:15:20;4.00;;;3.00;;
12888;SDS011;56848;49.896;11.424;2023-05-10T15:17:47;5.00;;;2.63;;
12888;SDS011;56848;49.896;11.424;2023-05-10T15:20:13;6.90;;;2.97;;
12888;SDS011;56848;49.896;11.424;2023-05-10T15:22:39;9.83;;;3.50;;
12888;SDS011;56848;49.896;11.424;2023-05-10T15:25:06;4.90;;;2.80;;
12888;SDS011;56848;49.896;11.424;2023-05-10T15:27:32;4.00;;;2.80;;
12888;SDS011;56848;49.896;11.424;2023-05-10T15:29:58;2.90;;;2.47;;
12888;SDS011;56848;49.896;11.424;2023-05-10T15:32:24;4.77;;;2.40;;
12888;SDS011;56848;49.896;11.424;2023-05-10T15:34:50;5.37;;;2.40;;
12888;SDS011;56848;49.896;11.424;2023-05-10T15:37:16;3.00;;;2.30;;
12888;SDS011;56848;49.896;11.424;2023-05-10T15:39:43;3.30;;;2.27;;
12888;SDS011;56848;49.896;11.424;2023-05-10T15:42:09;5.60;;;2.73;;
12888;SDS011;56848;49.896;11.424;2023-05-10T15:44:35;4.83;;;2.50;;
12888;SDS011;56848;49.896;11.424;2023-05-10T15:47:03;7.03;;;4.23;;
12888;SDS011;56848;49.896;11.424;2023-05-10T15:49:29;22.57;;;6.23;;
12888;SDS011;56848;49.896;11.424;2023-05-10T15:51:55;4.33;;;2.97;;
12888;SDS011;56848;49.896;11.424;2023-05-10T15:54:21;5.73;;;3.30;;
12888;SDS011;56848;49.896;11.424;2023-05-10T15:56:47;4.60;;;3.00;;
12888;SDS011;56848;49.896;11.424;2023-05-10T15:59:13;3.17;;;2.70;;
12888;SDS011;56848;49.896;11.424;2023-05-10T16:01:39;3.80;;;1.97;;
12888;SDS011;56848;49.896;11.424;2023-05-10T16:04:05;3.30;;;2.33;;
12888;SDS011;56848;49.896;11.424;2023-05-10T16:06:31;7.03;;;3.10;;
12888;SDS011;56848;49.896;11.424;2023-05-10T16:08:58;3.83;;;2.73;;
12888;SDS011;56848;49.896;11.424;2023-05-10T16:11:25;1.73;;;1.63;;
12888;SDS011;56848;49.896;11.424;2023-05-10T16:13:51;4.70;;;2.57;;
12888;SDS011;56848;49.896;11.424;2023-05-10T16:16:17;2.50;;;1.97;;
12888;SDS011;56848;49.896;11.424;2023-05-10T16:18:43;1.87;;;1.73;;
12888;SDS011;56848;49.896;11.424;2023-05-10T16:21:09;6.57;;;2.30;;
12888;SDS011;56848;49.896;11.424;2023-05-10T16:23:35;2.60;;;2.40;;
12888;SDS011;56848;49.896;11.424;2023-05-10T16:26:01;3.67;;;2.17;;
12888;SDS011;56848;49.896;11.424;2023-05-10T16:28:28;3.00;;;2.00;;
12888;SDS011;56848;49.896;11.424;2023-05-10T16:30:54;4.60;;;2.60;;
12888;SDS011;56848;49.896;11.424;2023-05-10T16:33:20;2.67;;;2.47;;
12888;SDS011;56848;49.896;11.424;2023-05-10T16:35:46;9.80;;;2.80;;
12888;SDS011;56848;49.896;11.424;2023-05-10T16:38:11;6.10;;;2.70;;
12888;SDS011;56848;49.896;11.424;2023-05-10T16:40:38;7.03;;;2.93;;
12888;SDS011;56848;49.896;11.424;2023-05-10T16:43:04;8.67;;;2.43;;
12888;SDS011;56848;49.896;11.424;2023-05-10T16:45:30;6.90;;;2.30;;
12888;SDS011;56848;49.896;11.424;2023-05-10T16:47:56;4.87;;;2.03;;
12888;SDS011;56848;49.896;11.424;2023-05-10T16:50:22;7.47;;;2.57;;
12888;SDS011;56848;49.896;11.424;2023-05-10T16:52:48;8.97;;;2.83;;
12888;SDS011;56848;49.896;11.424;2023-05-10T16:55:14;2.57;;;2.37;;
12888;SDS011;56848;49.896;11.424;2023-05-10T16:57:40;8.43;;;2.40;;
12888;SDS011;56848;49.896;11.424;2023-05-10T17:00:06;5.93;;;2.50;;
12888;SDS011;56848;49.896;11.424;2023-05-10T17:02:32;6.67;;;2.50;;
12888;SDS011;56848;49.896;11.424;2023-05-10T17:04:58;4.53;;;2.40;;
12888;SDS011;56848;49.896;11.424;2023-05-10T17:07:24;4.43;;;2.50;;
12888;SDS011;56848;49.896;11.424;2023-05-10T17:09:53;3.50;;;2.67;;
12888;SDS011;56848;49.896;11.424;2023-05-10T17:12:19;3.30;;;2.40;;
12888;SDS011;56848;49.896;11.424;2023-05-10T17:14:45;3.63;;;2.50;;
12888;SDS011;56848;49.896;11.424;2023-05-10T17:17:11;5.03;;;2.60;;
12888;SDS011;56848;49.896;11.424;2023-05-10T17:19:37;3.70;;;1.90;;
12888;SDS011;56848;49.896;11.424;2023-05-10T17:22:03;4.67;;;2.20;;
12888;SDS011;56848;49.896;11.424;2023-05-10T17:24:29;3.77;;;2.10;;
12888;SDS011;56848;49.896;11.424;2023-05-10T17:26:56;3.13;;;1.87;;
12888;SDS011;56848;49.896;11.424;2023-05-10T17:29:24;3.57;;;2.07;;
12888;SDS011;56848;49.896;11.424;2023-05-10T17:31:50;11.00;;;2.30;;
12888;SDS011;56848;49.896;11.424;2023-05-10T17:34:16;2.30;;;2.10;;
12888;SDS011;56848;49.896;11.424;2023-05-10T17:36:42;2.90;;;2.10;;
12888;SDS011;56848;49.896;11.424;2023-05-10T17:39:08;6.43;;;2.30;;
12888;SDS011;56848;49.896;11.424;2023-05-10T17:41:34;12.77;;;2.90;;
12888;SDS011;56848;49.896;11.424;2023-05-10T17:44:00;5.67;;;2.70;;
12888;SDS011;56848;49.896;11.424;2023-05-10T17:46:26;3.67;;;3.37;;
12888;SDS011;56848;49.896;11.424;2023-05-10T17:48:52;4.40;;;2.23;;
12888;SDS011;56848;49.896;11.424;2023-05-10T17:51:18;9.43;;;2.93;;
12888;SDS011;56848;49.896;11.424;2023-05-10T17:53:44;3.63;;;2.70;;
12888;SDS011;56848;49.896;11.424;2023-05-10T17:56:10;10.10;;;2.57;;
12888;SDS011;56848;49.896;11.424;2023-05-10T17:58:36;7.13;;;2.67;;
12888;SDS011;56848;49.896;11.424;2023-05-10T18:01:02;11.13;;;2.83;;
12888;SDS011;56848;49.896;11.424;2023-05-10T18:03:29;5.67;;;2.27;;
12888;SDS011;56848;49.896;11.424;2023-05-10T18:05:55;3.97;;;2.20;;
12888;SDS011;56848;49.896;11.424;2023-05-10T18:08:22;8.47;;;2.70;;
12888;SDS011;56848;49.896;11.424;2023-05-10T18:10:51;2.60;;;2.40;;
12888;SDS011;56848;49.896;11.424;2023-05-10T18:13:16;10.60;;;3.03;;
12888;SDS011;56848;49.896;11.424;2023-05-10T18:15:42;5.83;;;2.47;;
12888;SDS011;56848;49.896;11.424;2023-05-10T18:18:09;1.90;;;1.77;;
12888;SDS011;56848;49.896;11.424;2023-05-10T18:20:35;3.90;;;2.00;;
12888;SDS011;56848;49.896;11.424;2023-05-10T18:23:01;3.53;;;1.83;;
12888;SDS011;56848;49.896;11.424;2023-05-10T18:25:27;3.20;;;1.70;;
12888;SDS011;56848;49.896;11.424;2023-05-10T18:27:53;4.70;;;2.13;;
12888;SDS011;56848;49.896;11.424;2023-05-10T18:30:19;2.37;;;1.80;;
12888;SDS011;56848;49.896;11.424;2023-05-10T18:32:46;2.57;;;1.80;;
12888;SDS011;56848;49.896;11.424;2023-05-10T18:35:12;5.70;;;2.20;;
12888;SDS011;56848;49.896;11.424;2023-05-10T18:37:38;8.70;;;1.93;;
12888;SDS011;56848;49.896;11.424;2023-05-10T18:40:04;7.00;;;2.77;;
12888;SDS011;56848;49.896;11.424;2023-05-10T18:42:33;2.93;;;2.03;;
12888;SDS011;56848;49.896;11.424;2023-05-10T18:44:59;3.50;;;1.93;;